Time;durP1;ratioP1;P1;durP2;ratioP2;P2;SDS_P1;SDS_P2;PMS_P1;PMS_P2;Temp;Humidity;BMP_temperature;BMP_pressure;BME280_temperature;BME280_humidity;BME280_pressure;Samples;Min_cycle;Max_cycle;Signal;HPM_P1;HPM_P2
2024/01/12 00:01:43;;;;;;;;;19.25;18.25;;;;;;;;5055259;28;46431;-64
2024/01/12 00:04:08;;;;;;;;;18.00;15.33;;;;;;;;5054417;28;45415;-64
2024/01/12 00:06:33;;;;;;;;;17.75;15.00;;;;;;;;5054369;28;45443;-65
2024/01/12 00:08:59;;;;;;;;;18.33;17.33;;;;;;;;5053634;28;45395;-64
2024/01/12 00:11:24;;;;;;;;;17.33;15.00;;;;;;;;5054016;28;45414;-64
2024/01/12 00:13:49;;;;;;;;;22.25;17.25;;;;;;;;5054513;28;45248;-65
2024/01/12 00:16:14;;;;;;;;;15.75;11.75;;;;;;;;5056183;28;45485;-64
2024/01/12 00:18:40;;;;;;;;;17.33;16.00;;;;;;;;5060798;28;45659;-64
2024/01/12 00:21:05;;;;;;;;;12.67;10.67;;;;;;;;5062031;28;46887;-64
2024/01/12 00:23:30;;;;;;;;;14.33;14.33;;;;;;;;5045676;28;45382;-65
2024/01/12 00:25:59;;;;;;;;;16.33;14.33;;;;;;;;5040780;28;45567;-64
2024/01/12 00:28:35;;;;;;;;;15.75;14.50;;;;;;;;5043906;28;45403;-64
2024/01/12 00:31:20;;;;;;;;;18.25;16.75;;;;;;;;5039572;28;45679;-64
2024/01/12 00:33:48;;;;;;;;;22.50;17.50;;;;;;;;5039232;28;45462;-64
2024/01/12 00:36:26;;;;;;;;;;;;;;;;;;;;;
2024/01/12 00:38:51;;;;;;;;;15.00;12.75;;;;;;;;5039389;28;72909;-65
2024/01/12 00:41:30;;;;;;;;;;;;;;;;;;;;;
2024/01/12 00:44:05;;;;;;;;;8.25;5.00;;;;;;;;5038131;28;72084;-64
2024/01/12 00:46:44;;;;;;;;;;;;;;;;;;;;;
2024/01/12 00:49:09;;;;;;;;;14.25;13.75;;;;;;;;5039315;28;72786;-64
2024/01/12 00:51:58;;;;;;;;;16.50;13.75;;;;;;;;5040283;28;46483;-64
2024/01/12 00:54:36;;;;;;;;;;;;;;;;;;;;;
2024/01/12 00:57:05;;;;;;;;;16.00;16.00;;;;;;;;5036639;28;67248;-64
2024/01/12 00:59:43;;;;;;;;;12.50;12.25;;;;;;;;5046339;28;45571;-65
2024/01/12 01:02:10;;;;;;;;;12.00;12.00;;;;;;;;5029492;28;45635;-64
2024/01/12 01:04:38;;;;;;;;;21.50;16.00;;;;;;;;5038097;28;45841;-64
2024/01/12 01:07:06;;;;;;;;;15.75;13.50;;;;;;;;5039898;28;45393;-64
2024/01/12 01:09:42;;;;;;;;;16.00;15.00;;;;;;;;5038705;28;45500;-64
2024/01/12 01:12:19;;;;;;;;;;;;;;;;;;;;;
2024/01/12 01:14:54;;;;;;;;;15.50;13.25;;;;;;;;5041591;28;71621;-64
2024/01/12 01:17:25;;;;;;;;;17.25;15.00;;;;;;;;5040566;28;45418;-64
2024/01/12 01:20:00;;;;;;;;;;;;;;;;;;;;;
2024/01/12 01:22:29;;;;;;;;;19.50;16.50;;;;;;;;5042530;28;73855;-64
2024/01/12 01:25:18;;;;;;;;;17.25;15.25;;;;;;;;5040022;28;45612;-64
2024/01/12 01:28:09;;;;;;;;;20.50;18.25;;;;;;;;5038856;28;45527;-64
2024/01/12 01:30:38;;;;;;;;;18.00;13.75;;;;;;;;5042415;28;45420;-64
2024/01/12 01:33:11;;;;;;;;;18.25;15.75;;;;;;;;5036421;28;46550;-64
2024/01/12 01:35:39;;;;;;;;;16.75;15.00;;;;;;;;5038312;28;45399;-64
2024/01/12 01:38:29;;;;;;;;;24.75;19.50;;;;;;;;5040004;28;45511;-64
2024/01/12 01:41:05;;;;;;;;;16.50;14.25;;;;;;;;5038357;28;45497;-64
2024/01/12 01:43:40;;;;;;;;;;;;;;;;;;;;;
2024/01/12 01:46:29;;;;;;;;;21.50;18.00;;;;;;;;5028630;28;73542;-64
2024/01/12 01:49:04;;;;;;;;;13.75;13.75;;;;;;;;5039368;28;45372;-64
2024/01/12 01:51:32;;;;;;;;;20.25;15.25;;;;;;;;5037821;28;45345;-64
2024/01/12 01:54:11;;;;;;;;;;;;;;;;;;;;;
2024/01/12 01:56:39;;;;;;;;;17.50;16.00;;;;;;;;5038254;28;71580;-64
2024/01/12 01:59:25;;;;;;;;;20.75;17.00;;;;;;;;5037725;28;45460;-64
2024/01/12 02:02:08;;;;;;;;;17.75;16.25;;;;;;;;5035625;28;45394;-64
2024/01/12 02:04:38;;;;;;;;;24.00;17.00;;;;;;;;5037335;28;47090;-64
2024/01/12 02:07:35;;;;;;;;;;;;;;;;;;;;;
2024/01/12 02:12:39;;;;;;;;;18.25;16.75;;;;;;;;5037874;28;45808;-64
2024/01/12 02:15:18;;;;;;;;;;;;;;;;;;;;;
2024/01/12 02:18:13;;;;;;;;;;;;;;;;;;;;;
2024/01/12 02:21:00;;;;;;;;;;;;;;;;;;;;;
2024/01/12 02:23:38;;;;;;;;;;;;;;;;;;;;;
2024/01/12 02:26:07;;;;;;;;;20.25;19.00;;;;;;;;5037452;28;74467;-64
2024/01/12 02:28:56;;;;;;;;;;;;;;;;;;;;;
2024/01/12 02:31:43;;;;;;;;;25.00;18.50;;;;;;;;5033733;28;68985;-64
2024/01/12 02:34:10;;;;;;;;;17.00;15.75;;;;;;;;5036308;28;45414;-64
2024/01/12 02:36:48;;;;;;;;;21.25;16.25;;;;;;;;5030455;28;46235;-64
2024/01/12 02:39:28;;;;;;;;;;;;;;;;;;;;;
2024/01/12 02:41:57;;;;;;;;;20.75;17.50;;;;;;;;5042854;28;68709;-64
2024/01/12 02:44:36;;;;;;;;;;;;;;;;;;;;;
2024/01/12 02:47:19;;;;;;;;;;;;;;;;;;;;;
2024/01/12 02:49:54;;;;;;;;;21.75;16.00;;;;;;;;5037599;28;73398;-64
2024/01/12 02:52:35;;;;;;;;;;;;;;;;;;;;;
2024/01/12 02:55:19;;;;;;;;;;;;;;;;;;;;;
2024/01/12 02:58:24;;;;;;;;;;;;;;;;;;;;;
2024/01/12 03:00:58;;;;;;;;;17.75;14.75;;;;;;;;5033000;28;72772;-64
2024/01/12 03:06:19;;;;;;;;;17.25;16.00;;;;;;;;5036068;28;46147;-64
2024/01/12 03:08:57;;;;;;;;;18.25;15.25;;;;;;;;5038529;28;45363;-64
2024/01/12 03:11:32;;;;;;;;;29.00;19.00;;;;;;;;5038032;28;45773;-64
2024/01/12 03:14:30;;;;;;;;;;;;;;;;;;;;;
2024/01/12 03:17:13;;;;;;;;;26.25;22.25;;;;;;;;5035085;28;71803;-64
2024/01/12 03:19:39;;;;;;;;;24.75;21.50;;;;;;;;5036404;28;45583;-64
2024/01/12 03:22:25;;;;;;;;;20.25;18.75;;;;;;;;5036563;28;45522;-64
2024/01/12 03:24:57;;;;;;;;;27.75;21.50;;;;;;;;5026224;28;45465;-64
2024/01/12 03:27:55;;;;;;;;;;;;;;;;;;;;;
2024/01/12 03:30:12;;;;;;;;;20.75;16.50;;;;;;;;5029553;28;46777;-64
2024/01/12 03:32:48;;;;;;;;;;;;;;;;;;;;;
2024/01/12 03:35:15;;;;;;;;;21.25;21.25;;;;;;;;5035815;28;69090;-64
2024/01/12 03:37:53;;;;;;;;;;;;;;;;;;;;;
2024/01/12 03:40:49;;;;;;;;;28.00;24.75;;;;;;;;5036817;28;75296;-64
2024/01/12 03:43:17;;;;;;;;;28.50;23.25;;;;;;;;5030256;28;45687;-64
2024/01/12 03:45:55;;;;;;;;;30.25;26.50;;;;;;;;5038039;28;45499;-64
2024/01/12 03:48:54;;;;;;;;;;;;;;;;;;;;;
2024/01/12 03:51:31;;;;;;;;;31.50;28.75;;;;;;;;5033489;28;75372;-64
2024/01/12 03:53:59;;;;;;;;;31.75;26.00;;;;;;;;5037034;28;45520;-64
2024/01/12 03:56:37;;;;;;;;;;;;;;;;;;;;;
2024/01/12 03:59:24;;;;;;;;;32.00;28.75;;;;;;;;5029652;28;72720;-64
2024/01/12 04:01:53;;;;;;;;;28.75;22.00;;;;;;;;5043535;28;47200;-64
2024/01/12 04:04:27;;;;;;;;;26.50;24.50;;;;;;;;5039349;28;45843;-64
2024/01/12 04:07:00;;;;;;;;;30.00;22.25;;;;;;;;5044773;28;45779;-64
2024/01/12 04:09:47;;;;;;;;;;;;;;;;;;;;;
2024/01/12 04:15:15;;;;;;;;;30.00;24.75;;;;;;;;5030339;28;45911;-64
2024/01/12 04:17:43;;;;;;;;;30.00;29.25;;;;;;;;5049683;28;45432;-64
2024/01/12 04:20:17;;;;;;;;;33.50;29.25;;;;;;;;5043113;28;45474;-64
2024/01/12 04:26:01;;;;;;;;;34.75;26.00;;;;;;;;5039621;28;45475;-64
2024/01/12 04:28:45;;;;;;;;;;;;;;;;;;;;;
2024/01/12 04:31:29;;;;;;;;;34.00;28.25;;;;;;;;5037060;28;73933;-64
2024/01/12 04:33:57;;;;;;;;;29.75;25.25;;;;;;;;5041309;28;47807;-64
2024/01/12 04:36:37;;;;;;;;;28.25;25.50;;;;;;;;5039401;28;45737;-64
2024/01/12 04:39:22;;;;;;;;;;;;;;;;;;;;;
2024/01/12 04:42:17;;;;;;;;;30.25;25.50;;;;;;;;5038986;28;71796;-64
2024/01/12 04:47:33;;;;;;;;;33.75;29.50;;;;;;;;5027604;28;45525;-64
2024/01/12 04:52:57;;;;;;;;;;;;;;;;;;;;;
2024/01/12 04:55:25;;;;;;;;;27.50;22.75;;;;;;;;5039099;28;75469;-64
2024/01/12 04:58:01;;;;;;;;;29.00;26.75;;;;;;;;5038837;28;45277;-64
2024/01/12 05:00:37;;;;;;;;;;;;;;;;;;;;;
2024/01/12 05:03:13;;;;;;;;;;;;;;;;;;;;;
2024/01/12 05:08:37;;;;;;;;;;;;;;;;;;;;;
2024/01/12 05:11:25;;;;;;;;;35.25;27.25;;;;;;;;5038637;28;67874;-64
2024/01/12 05:14:11;;;;;;;;;30.50;26.75;;;;;;;;5032233;28;45507;-64
2024/01/12 05:16:51;;;;;;;;;;;;;;;;;;;;;
2024/01/12 05:19:30;;;;;;;;;;;;;;;;;;;;;
2024/01/12 05:22:18;;;;;;;;;32.50;30.50;;;;;;;;5042581;28;68662;-64
2024/01/12 05:25:13;;;;;;;;;;;;;;;;;;;;;
2024/01/12 05:31:00;;;;;;;;;;;;;;;;;;;;;
2024/01/12 05:43:02;;;;;;;;;;;;;;;;;;;;;
2024/01/12 05:46:06;;;;;;;;;;;;;;;;;;;;;
2024/01/12 05:55:09;;;;;;;;;26.00;23.25;;;;;;;;5029688;28;45721;-64
2024/01/12 06:00:59;;;;;;;;;;;;;;;;;;;;;
2024/01/12 06:03:55;;;;;;;;;;;;;;;;;;;;;
2024/01/12 06:06:51;;;;;;;;;;;;;;;;;;;;;
2024/01/12 06:12:35;;;;;;;;;;;;;;;;;;;;;
2024/01/12 06:15:26;;;;;;;;;28.00;23.50;;;;;;;;5038933;28;75387;-65
2024/01/12 06:18:32;;;;;;;;;28.00;23.00;;;;;;;;5038295;28;45334;-65
2024/01/12 06:24:13;;;;;;;;;;;;;;;;;;;;;
2024/01/12 06:27:29;;;;;;;;;;;;;;;;;;;;;
2024/01/12 06:33:25;;;;;;;;;;;;;;;;;;;;;
2024/01/12 06:35:51;;;;;;;;;23.25;19.50;;;;;;;;5034451;28;72007;-64
2024/01/12 06:42:00;;;;;;;;;25.25;23.75;;;;;;;;5026807;28;45344;-65
2024/01/12 06:44:34;;;;;;;;;23.75;22.00;;;;;;;;5032881;28;45489;-64
2024/01/12 06:47:10;;;;;;;;;28.00;21.50;;;;;;;;5029997;28;45354;-64
2024/01/12 06:50:00;;;;;;;;;;;;;;;;;;;;;
2024/01/12 06:52:59;;;;;;;;;;;;;;;;;;;;;
2024/01/12 06:55:52;;;;;;;;;25.75;23.25;;;;;;;;5025568;28;69273;-64
2024/01/12 06:58:20;;;;;;;;;26.25;24.00;;;;;;;;5024642;28;45558;-65
2024/01/12 07:00:58;;;;;;;;;27.00;23.50;;;;;;;;5028235;28;45463;-64
2024/01/12 07:09:46;;;;;;;;;22.25;19.00;;;;;;;;5020308;28;45558;-64
2024/01/12 07:12:38;;;;;;;;;24.00;18.50;;;;;;;;5042471;28;47496;-64
2024/01/12 07:15:06;;;;;;;;;24.00;20.75;;;;;;;;5028161;28;45542;-64
2024/01/12 07:18:12;;;;;;;;;27.25;22.25;;;;;;;;5036780;28;45540;-64
2024/01/12 07:20:37;;;;;;;;;30.75;29.00;;;;;;;;5032475;28;45768;-64
2024/01/12 07:23:11;;;;;;;;;24.00;21.25;;;;;;;;5038142;28;45588;-63
2024/01/12 07:25:52;;;;;;;;;;;;;;;;;;;;;
2024/01/12 07:28:47;;;;;;;;;;;;;;;;;;;;;
2024/01/12 07:37:59;;;;;;;;;26.50;23.25;;;;;;;;5025724;28;45554;-64
2024/01/12 07:43:30;;;;;;;;;26.00;21.25;;;;;;;;5036032;28;45597;-63
2024/01/12 07:52:45;;;;;;;;;;;;;;;;;;;;;
2024/01/12 07:58:30;;;;;;;;;;;;;;;;;;;;;
2024/01/12 08:01:26;;;;;;;;;;;;;;;;;;;;;
2024/01/12 08:10:40;;;;;;;;;;;;;;;;;;;;;
2024/01/12 08:15:55;;;;;;;;;35.25;26.00;;;;;;;;5036279;28;46064;-65
2024/01/12 08:18:51;;;;;;;;;;;;;;;;;;;;;
2024/01/12 08:27:56;;;;;;;;;;;;;;;;;;;;;
2024/01/12 08:31:03;;;;;;;;;;;;;;;;;;;;;
2024/01/12 08:33:49;;;;;;;;;;;;;;;;;;;;;
2024/01/12 08:39:28;;;;;;;;;;;;;;;;;;;;;
2024/01/12 08:48:02;;;;;;;;;32.50;27.25;;;;;;;;5036881;28;45441;-65
2024/01/12 08:50:37;;;;;;;;;;;;;;;;;;;;;
2024/01/12 08:53:33;;;;;;;;;;;;;;;;;;;;;
2024/01/12 08:56:08;;;;;;;;;;;;;;;;;;;;;
2024/01/12 08:58:51;;;;;;;;;24.50;22.75;;;;;;;;5037598;28;72171;-66
2024/01/12 09:01:18;;;;;;;;;28.25;26.25;;;;;;;;5040073;28;45616;-65
2024/01/12 09:03:48;;;;;;;;;27.75;24.00;;;;;;;;5039212;28;45465;-65
2024/01/12 09:06:15;;;;;;;;;32.00;27.50;;;;;;;;5038505;28;45386;-66
2024/01/12 09:08:41;;;;;;;;;37.50;31.75;;;;;;;;5022296;28;45268;-65
2024/01/12 09:11:06;;;;;;;;;31.00;28.00;;;;;;;;5030175;28;45286;-64
2024/01/12 09:13:31;;;;;;;;;33.00;28.75;;;;;;;;5039161;28;45631;-64
2024/01/12 09:15:56;;;;;;;;;38.25;30.25;;;;;;;;5040123;28;45333;-64
2024/01/12 09:18:22;;;;;;;;;30.67;26.67;;;;;;;;5038658;28;45367;-64
2024/01/12 09:20:47;;;;;;;;;27.25;22.25;;;;;;;;5037467;28;46098;-64
2024/01/12 09:23:12;;;;;;;;;33.00;32.33;;;;;;;;5041775;28;45704;-64
2024/01/12 09:25:38;;;;;;;;;29.00;26.67;;;;;;;;5043224;28;47647;-64
2024/01/12 09:28:03;;;;;;;;;18.33;14.33;;;;;;;;5038811;28;45407;-64
2024/01/12 09:30:28;;;;;;;;;38.75;34.50;;;;;;;;5038333;28;45433;-64
2024/01/12 09:32:53;;;;;;;;;26.00;19.33;;;;;;;;5043690;28;46008;-64
2024/01/12 09:35:26;;;;;;;;;37.67;29.33;;;;;;;;5042906;28;47801;-66
2024/01/12 09:37:51;;;;;;;;;32.50;29.25;;;;;;;;5035809;28;45516;-65
2024/01/12 09:40:19;;;;;;;;;30.33;29.00;;;;;;;;5035133;28;45331;-64
2024/01/12 09:42:49;;;;;;;;;39.00;31.50;;;;;;;;5034736;28;45538;-64
2024/01/12 09:45:14;;;;;;;;;31.75;28.50;;;;;;;;5031383;28;48674;-65
2024/01/12 09:47:40;;;;;;;;;31.00;28.25;;;;;;;;5038221;28;45314;-64
2024/01/12 09:50:07;;;;;;;;;33.75;30.25;;;;;;;;5039813;28;45490;-65
2024/01/12 09:52:33;;;;;;;;;36.75;33.50;;;;;;;;5039323;28;45471;-65
2024/01/12 09:54:58;;;;;;;;;22.75;15.25;;;;;;;;5037682;28;47407;-64
2024/01/12 09:57:23;;;;;;;;;33.67;31.00;;;;;;;;5044536;28;45324;-64
2024/01/12 09:59:50;;;;;;;;;34.00;27.00;;;;;;;;5034856;28;45497;-64
2024/01/12 10:02:17;;;;;;;;;35.50;34.75;;;;;;;;5031469;28;45553;-65
2024/01/12 10:04:42;;;;;;;;;39.50;31.00;;;;;;;;5026145;28;46369;-64
2024/01/12 10:07:08;;;;;;;;;42.33;35.67;;;;;;;;5038980;28;45362;-65
2024/01/12 10:09:33;;;;;;;;;39.00;30.50;;;;;;;;5027484;28;45403;-65
2024/01/12 10:11:59;;;;;;;;;38.67;33.33;;;;;;;;5030577;28;45387;-65
2024/01/12 10:14:25;;;;;;;;;34.25;30.25;;;;;;;;5031274;28;47366;-64
2024/01/12 10:17:11;;;;;;;;;37.00;33.75;;;;;;;;5036728;28;45661;-64
2024/01/12 10:19:36;;;;;;;;;34.75;31.75;;;;;;;;5027978;28;45415;-64
2024/01/12 10:22:01;;;;;;;;;37.25;31.25;;;;;;;;5039244;28;45426;-64
2024/01/12 10:24:28;;;;;;;;;40.00;35.00;;;;;;;;5038604;28;46503;-63
2024/01/12 10:26:53;;;;;;;;;31.25;26.75;;;;;;;;5038711;28;45331;-63
2024/01/12 10:29:18;;;;;;;;;42.33;34.00;;;;;;;;5050297;28;45397;-64
2024/01/12 10:31:45;;;;;;;;;37.00;33.33;;;;;;;;5035457;28;45323;-64
2024/01/12 10:34:13;;;;;;;;;40.00;38.00;;;;;;;;5030979;28;46453;-64
2024/01/12 10:36:39;;;;;;;;;25.00;22.25;;;;;;;;5039054;28;45315;-63
2024/01/12 10:39:09;;;;;;;;;36.50;29.75;;;;;;;;5039041;28;45477;-63
2024/01/12 10:41:35;;;;;;;;;39.50;34.50;;;;;;;;5038671;28;45524;-64
2024/01/12 10:44:03;;;;;;;;;31.00;26.50;;;;;;;;5038806;28;45951;-64
2024/01/12 10:46:44;;;;;;;;;37.50;36.25;;;;;;;;5037064;28;45454;-64
2024/01/12 10:49:13;;;;;;;;;43.75;35.75;;;;;;;;5032923;28;45232;-64
2024/01/12 10:51:39;;;;;;;;;39.50;29.50;;;;;;;;5026829;28;45371;-64
2024/01/12 10:54:08;;;;;;;;;38.00;31.00;;;;;;;;5030761;28;45526;-64
2024/01/12 10:56:35;;;;;;;;;44.25;36.50;;;;;;;;5039314;28;45869;-64
2024/01/12 10:59:01;;;;;;;;;36.00;34.25;;;;;;;;5036850;28;45461;-63
2024/01/12 11:01:26;;;;;;;;;39.75;32.25;;;;;;;;5033720;28;45420;-63
2024/01/12 11:03:52;;;;;;;;;40.00;33.50;;;;;;;;5036161;28;45499;-63
2024/01/12 11:06:18;;;;;;;;;43.75;36.00;;;;;;;;5035686;28;45860;-63
2024/01/12 11:08:46;;;;;;;;;43.25;35.50;;;;;;;;5034501;28;45458;-64
2024/01/12 11:11:15;;;;;;;;;41.50;37.25;;;;;;;;5037873;28;45391;-62
2024/01/12 11:13:41;;;;;;;;;39.25;35.75;;;;;;;;5037674;28;45446;-63
2024/01/12 11:16:06;;;;;;;;;45.25;38.25;;;;;;;;5037010;28;45423;-63
2024/01/12 11:18:33;;;;;;;;;43.50;36.00;;;;;;;;5047704;28;45687;-63
2024/01/12 11:21:02;;;;;;;;;39.00;36.25;;;;;;;;5037152;28;45474;-63
2024/01/12 11:23:27;;;;;;;;;31.00;30.25;;;;;;;;5038262;28;46055;-63
2024/01/12 12:00:53;;;;;;;;;30.75;27.00;;;;;;;;5052574;28;45870;-64
2024/01/12 12:03:48;;;;;;;;;35.75;29.25;;;;;;;;5048472;28;45528;-66
2024/01/12 12:06:14;;;;;;;;;36.25;33.25;;;;;;;;5028343;28;45422;-63
2024/01/12 12:08:55;;;;;;;;;;;;;;;;;;;;;
2024/01/12 12:11:23;;;;;;;;;34.75;30.75;;;;;;;;5029992;28;73042;-65
2024/01/12 12:13:51;;;;;;;;;33.75;29.00;;;;;;;;5016042;28;45759;-65
2024/01/12 12:18:52;;;;;;;;;36.50;28.25;;;;;;;;5483099;22;45493;-81
2024/01/12 12:21:17;;;;;;;;;37.75;31.75;;;;;;;;5048929;28;45400;-81
2024/01/12 12:23:43;;;;;;;;;32.00;29.00;;;;;;;;5042026;28;45345;-81
2024/01/12 12:26:09;;;;;;;;;33.50;29.75;;;;;;;;5044658;28;45374;-82
2024/01/12 12:28:34;;;;;;;;;35.25;34.00;;;;;;;;5021287;28;48064;-81
2024/01/12 12:30:59;;;;;;;;;36.33;32.00;;;;;;;;5043783;28;45350;-82
2024/01/12 12:33:24;;;;;;;;;39.00;30.00;;;;;;;;5036961;28;45504;-82
2024/01/12 12:36:07;;;;;;;;;36.25;33.00;;;;;;;;5038201;28;45445;-82
2024/01/12 12:38:32;;;;;;;;;29.50;27.75;;;;;;;;5045631;28;45562;-82
2024/01/12 12:40:58;;;;;;;;;33.25;28.75;;;;;;;;5019602;28;45387;-83
2024/01/12 12:43:24;;;;;;;;;33.00;28.00;;;;;;;;5051261;28;45397;-83
2024/01/12 12:45:51;;;;;;;;;35.25;32.50;;;;;;;;5019525;28;45667;-83
2024/01/12 12:48:17;;;;;;;;;37.50;32.25;;;;;;;;5047786;28;46305;-84
2024/01/12 12:50:42;;;;;;;;;38.25;29.75;;;;;;;;5018822;28;45851;-82
2024/01/12 12:53:10;;;;;;;;;35.67;30.00;;;;;;;;5039693;28;45641;-81
2024/01/12 12:55:35;;;;;;;;;42.50;29.00;;;;;;;;5039258;28;45661;-81
2024/01/12 12:58:00;;;;;;;;;38.33;34.33;;;;;;;;5039149;28;45414;-83
2024/01/12 13:00:25;;;;;;;;;49.33;39.00;;;;;;;;5028172;28;45521;-82
2024/01/12 13:02:50;;;;;;;;;32.00;30.00;;;;;;;;5024165;28;45403;-81
2024/01/12 13:05:17;;;;;;;;;33.75;30.75;;;;;;;;5033925;28;45529;-82
2024/01/12 13:07:43;;;;;;;;;35.25;33.00;;;;;;;;5016601;28;47176;-82
2024/01/12 13:10:08;;;;;;;;;28.33;26.00;;;;;;;;5037213;28;45807;-82
2024/01/12 13:12:33;;;;;;;;;33.25;30.25;;;;;;;;5040790;28;45399;-82
2024/01/12 13:14:59;;;;;;;;;37.75;30.50;;;;;;;;5031303;28;45617;-82
2024/01/12 13:17:24;;;;;;;;;35.00;26.67;;;;;;;;5021569;28;47176;-82
2024/01/12 13:19:50;;;;;;;;;37.75;30.25;;;;;;;;5026412;28;45500;-82
2024/01/12 13:22:15;;;;;;;;;34.75;31.75;;;;;;;;5037125;28;45576;-82
2024/01/12 13:24:41;;;;;;;;;44.33;36.33;;;;;;;;5047822;28;45573;-81
2024/01/12 13:27:07;;;;;;;;;31.00;26.67;;;;;;;;5026900;28;47907;-81
2024/01/12 13:29:32;;;;;;;;;38.00;31.50;;;;;;;;5018990;28;45800;-83
2024/01/12 13:31:57;;;;;;;;;33.00;29.00;;;;;;;;5020916;28;45386;-83
2024/01/12 13:34:22;;;;;;;;;34.33;32.00;;;;;;;;5020078;28;45378;-82
2024/01/12 13:36:48;;;;;;;;;42.33;32.67;;;;;;;;5036934;28;45413;-82
2024/01/12 13:39:13;;;;;;;;;40.33;33.00;;;;;;;;5016958;28;45777;-82
2024/01/12 13:41:39;;;;;;;;;38.75;36.75;;;;;;;;5030812;28;45455;-82
2024/01/12 13:44:04;;;;;;;;;39.50;37.25;;;;;;;;5032477;28;45477;-82
2024/01/12 13:46:29;;;;;;;;;37.33;34.00;;;;;;;;5022732;28;46964;-82
2024/01/12 13:48:54;;;;;;;;;33.00;28.25;;;;;;;;5026988;28;46151;-82
2024/01/12 13:51:20;;;;;;;;;34.75;33.25;;;;;;;;5017629;28;45341;-82
2024/01/12 13:53:46;;;;;;;;;37.50;30.00;;;;;;;;5033744;28;45422;-82
2024/01/12 13:56:11;;;;;;;;;35.50;29.25;;;;;;;;5036492;28;45656;-82
2024/01/12 13:58:36;;;;;;;;;41.33;31.67;;;;;;;;5036422;28;45431;-82
2024/01/12 14:01:03;;;;;;;;;34.33;32.33;;;;;;;;5036447;28;45698;-82
2024/01/12 14:03:28;;;;;;;;;38.25;31.50;;;;;;;;5015294;28;45699;-81
2024/01/12 14:05:54;;;;;;;;;34.33;31.67;;;;;;;;5036078;28;45651;-82
2024/01/12 14:08:21;;;;;;;;;39.75;33.00;;;;;;;;5036164;28;45409;-82
2024/01/12 14:10:48;;;;;;;;;34.50;31.25;;;;;;;;5043978;28;45371;-82
2024/01/12 14:13:16;;;;;;;;;39.50;35.00;;;;;;;;5018256;28;45574;-82
2024/01/12 14:15:43;;;;;;;;;46.50;35.50;;;;;;;;5035437;28;46083;-81
2024/01/12 14:18:08;;;;;;;;;40.75;34.25;;;;;;;;5028922;28;45431;-82
2024/01/12 14:20:35;;;;;;;;;35.00;31.00;;;;;;;;5036321;28;45678;-81
2024/01/12 14:23:00;;;;;;;;;42.50;36.50;;;;;;;;5038237;28;45946;-82
2024/01/12 14:25:25;;;;;;;;;40.00;35.33;;;;;;;;5023340;28;47296;-82
2024/01/12 14:27:52;;;;;;;;;43.33;36.33;;;;;;;;5042092;28;45261;-82
2024/01/12 14:30:18;;;;;;;;;35.50;32.50;;;;;;;;5034773;28;45955;-81
2024/01/12 14:32:43;;;;;;;;;49.75;40.50;;;;;;;;5027782;28;45399;-81
2024/01/12 14:35:08;;;;;;;;;44.25;38.75;;;;;;;;5020365;28;47123;-81
2024/01/12 14:37:34;;;;;;;;;53.00;41.00;;;;;;;;5023343;28;45821;-82
2024/01/12 14:39:59;;;;;;;;;38.75;34.00;;;;;;;;5041522;28;45488;-82
2024/01/12 14:42:24;;;;;;;;;33.00;31.00;;;;;;;;5042173;28;45481;-82
2024/01/12 14:44:49;;;;;;;;;45.67;37.67;;;;;;;;5044879;28;46351;-82
2024/01/12 14:47:15;;;;;;;;;49.00;42.67;;;;;;;;5039607;28;45426;-82
2024/01/12 14:49:40;;;;;;;;;42.33;35.00;;;;;;;;5017642;28;45365;-82
2024/01/12 14:52:05;;;;;;;;;33.25;29.75;;;;;;;;5041353;28;45757;-82
2024/01/12 14:54:30;;;;;;;;;46.25;38.25;;;;;;;;5019586;28;47381;-82
2024/01/12 14:56:56;;;;;;;;;52.67;41.33;;;;;;;;5038751;28;45404;-82
2024/01/12 14:59:21;;;;;;;;;38.50;31.50;;;;;;;;5023121;28;45542;-82
2024/01/12 15:01:48;;;;;;;;;47.67;42.33;;;;;;;;5024303;28;45856;-82
2024/01/12 15:04:14;;;;;;;;;43.50;39.25;;;;;;;;5040436;28;45367;-82
2024/01/12 15:06:41;;;;;;;;;49.25;41.75;;;;;;;;5019172;28;45931;-81
2024/01/12 15:09:06;;;;;;;;;49.50;41.50;;;;;;;;5050825;28;45580;-81
2024/01/12 15:11:32;;;;;;;;;49.33;42.33;;;;;;;;5048530;28;45368;-82
2024/01/12 15:13:58;;;;;;;;;43.00;39.75;;;;;;;;5031526;28;47578;-82
2024/01/12 15:16:23;;;;;;;;;34.67;27.00;;;;;;;;5038934;28;45434;-81
2024/01/12 15:18:50;;;;;;;;;46.67;41.00;;;;;;;;5045583;28;45534;-82
2024/01/12 15:21:15;;;;;;;;;49.50;39.00;;;;;;;;5026756;28;45441;-82
2024/01/12 15:23:40;;;;;;;;;55.33;40.00;;;;;;;;5027714;28;47345;-83
2024/01/12 15:26:08;;;;;;;;;39.33;34.33;;;;;;;;5042797;28;45398;-83
2024/01/12 15:28:34;;;;;;;;;54.00;42.50;;;;;;;;5040725;28;45215;-83
2024/01/12 15:30:59;;;;;;;;;46.67;39.67;;;;;;;;5049280;28;45420;-83
2024/01/12 15:33:24;;;;;;;;;46.67;34.33;;;;;;;;5016414;28;47410;-84
2024/01/12 15:35:49;;;;;;;;;48.33;41.00;;;;;;;;5048970;28;45283;-83
2024/01/12 15:38:15;;;;;;;;;45.67;38.33;;;;;;;;5052148;28;45395;-84
2024/01/12 15:40:40;;;;;;;;;52.00;42.67;;;;;;;;5040001;28;45216;-82
2024/01/12 15:43:05;;;;;;;;;47.00;38.50;;;;;;;;5037712;28;45937;-82
2024/01/12 15:45:30;;;;;;;;;48.00;41.33;;;;;;;;5018115;28;45475;-82
2024/01/12 15:47:56;;;;;;;;;47.00;38.67;;;;;;;;5021456;28;45332;-82
2024/01/12 15:50:21;;;;;;;;;53.00;39.00;;;;;;;;5037842;28;45710;-82
2024/01/12 15:52:46;;;;;;;;;47.67;41.33;;;;;;;;5021063;28;47283;-82
2024/01/12 15:55:12;;;;;;;;;46.33;38.00;;;;;;;;5030336;28;45419;-83
2024/01/12 15:57:37;;;;;;;;;45.50;39.75;;;;;;;;5040144;28;45465;-83
2024/01/12 16:00:04;;;;;;;;;43.67;38.00;;;;;;;;5042581;28;45488;-82
2024/01/12 16:02:29;;;;;;;;;49.00;39.25;;;;;;;;5040361;28;46359;-83
2024/01/12 16:04:54;;;;;;;;;60.00;47.00;;;;;;;;5054798;28;45336;-83
2024/01/12 16:07:19;;;;;;;;;50.00;38.67;;;;;;;;5053017;28;45601;-83
2024/01/12 16:09:44;;;;;;;;;44.00;36.67;;;;;;;;5038091;28;46031;-82
2024/01/12 16:12:10;;;;;;;;;47.00;41.33;;;;;;;;5039059;28;46181;-82
2024/01/12 16:14:39;;;;;;;;;49.33;42.33;;;;;;;;5034318;28;45438;-83
2024/01/12 16:17:05;;;;;;;;;49.25;39.00;;;;;;;;5025429;28;45313;-83
2024/01/12 16:19:30;;;;;;;;;53.50;44.25;;;;;;;;5046463;28;45362;-83
2024/01/12 16:21:57;;;;;;;;;57.75;45.00;;;;;;;;5023176;28;47317;-83
2024/01/12 16:24:22;;;;;;;;;47.00;41.25;;;;;;;;5027043;28;45557;-82
2024/01/12 16:26:48;;;;;;;;;57.67;43.33;;;;;;;;5036094;28;45662;-83
2024/01/12 16:29:13;;;;;;;;;56.67;42.00;;;;;;;;5025688;28;45863;-82
2024/01/12 16:31:38;;;;;;;;;61.00;46.67;;;;;;;;5029736;28;47041;-83
2024/01/12 16:34:05;;;;;;;;;54.67;40.33;;;;;;;;5027961;28;45334;-83
2024/01/12 16:36:30;;;;;;;;;46.50;38.25;;;;;;;;5033409;28;45435;-78
2024/01/12 16:38:55;;;;;;;;;46.00;39.00;;;;;;;;5060763;28;45434;-69
2024/01/12 16:41:21;;;;;;;;;55.67;45.00;;;;;;;;5047442;28;45456;-81
2024/01/12 16:43:46;;;;;;;;;47.00;39.67;;;;;;;;5026014;28;45575;-81
2024/01/12 16:46:11;;;;;;;;;54.33;43.00;;;;;;;;5045267;28;45278;-81
2024/01/12 16:48:37;;;;;;;;;55.50;45.50;;;;;;;;5036738;28;45433;-81
2024/01/12 16:51:02;;;;;;;;;51.33;42.67;;;;;;;;5039898;28;45318;-81
2024/01/12 16:53:27;;;;;;;;;46.50;38.50;;;;;;;;5051545;28;45394;-81
2024/01/12 16:55:53;;;;;;;;;51.33;39.33;;;;;;;;5021159;28;45533;-81
2024/01/12 16:58:18;;;;;;;;;42.25;37.50;;;;;;;;5054456;28;45259;-81
2024/01/12 17:00:43;;;;;;;;;59.33;41.33;;;;;;;;5044577;28;45528;-81
2024/01/12 17:03:08;;;;;;;;;45.33;40.67;;;;;;;;5029973;28;45574;-81
2024/01/12 17:05:34;;;;;;;;;47.33;37.33;;;;;;;;5049232;28;45469;-82
2024/01/12 17:08:00;;;;;;;;;50.75;40.50;;;;;;;;5039754;28;46106;-82
2024/01/12 17:10:25;;;;;;;;;51.33;41.67;;;;;;;;5027024;28;49515;-83
2024/01/12 17:12:51;;;;;;;;;60.33;43.33;;;;;;;;5024867;28;46240;-83
2024/01/12 17:15:16;;;;;;;;;60.75;44.50;;;;;;;;5046307;28;45401;-82
2024/01/12 17:17:41;;;;;;;;;45.75;40.50;;;;;;;;5025504;28;45675;-82
2024/01/12 17:20:07;;;;;;;;;60.00;42.00;;;;;;;;5040365;28;45377;-83
2024/01/12 17:22:32;;;;;;;;;64.00;48.00;;;;;;;;5038340;28;45422;-82
2024/01/12 17:24:57;;;;;;;;;60.75;45.75;;;;;;;;5038857;28;45502;-82
2024/01/12 17:27:23;;;;;;;;;61.33;45.00;;;;;;;;5022582;28;45613;-82
2024/01/12 17:29:48;;;;;;;;;47.50;38.50;;;;;;;;5022014;28;47888;-82
2024/01/12 17:32:13;;;;;;;;;54.67;42.67;;;;;;;;5046140;28;45335;-82
2024/01/12 17:34:38;;;;;;;;;61.00;46.00;;;;;;;;5052353;28;45228;-82
2024/01/12 17:37:03;;;;;;;;;60.33;46.33;;;;;;;;5051695;28;45399;-83
2024/01/12 17:39:29;;;;;;;;;54.00;47.67;;;;;;;;5055449;28;45459;-83
2024/01/12 17:41:54;;;;;;;;;53.25;42.25;;;;;;;;5029693;28;45462;-83
2024/01/12 17:44:19;;;;;;;;;32.50;22.00;;;;;;;;5027718;28;45595;-83
2024/01/12 17:46:45;;;;;;;;;59.33;46.33;;;;;;;;5030022;28;45888;-83
2024/01/12 17:49:10;;;;;;;;;50.33;43.33;;;;;;;;5039676;28;45941;-83
2024/01/12 17:51:38;;;;;;;;;51.75;43.00;;;;;;;;5022478;28;45880;-83
2024/01/12 17:54:03;;;;;;;;;57.75;45.25;;;;;;;;5041725;28;45319;-82
2024/01/12 17:56:28;;;;;;;;;49.00;41.00;;;;;;;;5036366;28;45238;-82
2024/01/12 17:58:53;;;;;;;;;35.67;32.33;;;;;;;;5037765;28;45707;-82
2024/01/12 18:01:19;;;;;;;;;62.25;46.25;;;;;;;;5039615;28;45257;-82
2024/01/12 18:03:44;;;;;;;;;49.00;43.33;;;;;;;;5041084;28;45256;-82
2024/01/12 18:06:09;;;;;;;;;60.25;44.50;;;;;;;;5039275;28;45295;-82
2024/01/12 18:08:35;;;;;;;;;43.67;41.33;;;;;;;;5038820;28;46548;-82